Time;durP1;ratioP1;P1;durP2;ratioP2;P2;SDS_P1;SDS_P2;PMS_P1;PMS_P2;Temp;Humidity;BMP_temperature;BMP_pressure;BME280_temperature;BME280_humidity;BME280_pressure;Samples;Min_cycle;Max_cycle;Signal;HPM_P1;HPM_P2
2022/03/24 00:00:42;;;;;;;19.65;14.40;;;;;;;0.02;90.71;94063.09;2087233;28;20021;-82
2022/03/24 00:01:43;;;;;;;17.95;14.05;;;;;;;-0.05;90.57;94068.09;2094773;28;20174;-84
2022/03/24 00:02:45;;;;;;;21.23;14.10;;;;;;;-0.07;91.31;94054.53;2103925;28;20100;-82
2022/03/24 00:03:46;;;;;;;19.77;13.57;;;;;;;0.01;90.85;94050.28;2104664;28;20070;-83
2022/03/24 00:04:48;;;;;;;19.85;14.15;;;;;;;-0.01;90.10;94055.84;2104184;28;20477;-83
2022/03/24 00:05:49;;;;;;;22.52;14.43;;;;;;;0.12;89.93;94056.66;2086438;28;20022;-83
2022/03/24 00:06:50;;;;;;;21.13;13.88;;;;;;;0.02;90.00;94055.22;2093197;28;20645;-82
2022/03/24 00:07:51;;;;;;;23.17;14.52;;;;;;;0.02;90.75;94055.22;2094601;28;20108;-82
2022/03/24 00:08:52;;;;;;;17.45;13.65;;;;;;;-0.07;91.71;94050.03;2104362;28;20016;-83
2022/03/24 00:09:53;;;;;;;20.35;14.20;;;;;;;-0.02;91.21;94054.31;2097032;28;20413;-83
2022/03/24 00:10:54;;;;;;;18.67;13.52;;;;;;;0.10;90.09;94053.59;2098388;28;20012;-83
2022/03/24 00:11:55;;;;;;;20.55;14.05;;;;;;;-0.12;89.88;94050.25;2100902;28;20094;-83
2022/03/24 00:12:56;;;;;;;20.42;14.27;;;;;;;-0.14;91.07;94049.03;2097048;28;20439;-83
2022/03/24 00:13:57;;;;;;;21.63;14.60;;;;;;;-0.15;92.37;94047.50;2089598;28;20029;-82
2022/03/24 00:14:58;;;;;;;22.20;14.60;;;;;;;-0.23;92.86;94046.47;2095886;28;20157;-82
2022/03/24 00:16:00;;;;;;;21.98;15.32;;;;;;;-0.12;92.73;94050.25;2088069;28;20056;-83
2022/03/24 00:17:01;;;;;;;19.30;14.40;;;;;;;-0.10;92.02;94053.31;2099349;28;20108;-83
2022/03/24 00:18:02;;;;;;;19.15;14.10;;;;;;;-0.14;92.08;94046.41;2093555;28;20147;-82
2022/03/24 00:19:03;;;;;;;23.35;14.73;;;;;;;-0.16;91.86;94057.25;2099675;28;20044;-84
2022/03/24 00:20:05;;;;;;;17.55;13.75;;;;;;;-0.16;92.33;94045.97;2095782;28;21277;-84
2022/03/24 00:21:08;;;;;;;18.35;14.25;;;;;;;-0.15;91.91;94048.25;2089488;28;20025;-83
2022/03/24 00:22:10;;;;;;;21.73;15.02;;;;;;;-0.19;92.28;94044.75;2093945;28;20458;-83
2022/03/24 00:23:11;;;;;;;22.58;15.15;;;;;;;-0.14;93.15;94046.41;2102878;28;20040;-81
2022/03/24 00:24:13;;;;;;;18.92;13.45;;;;;;;-0.13;92.69;94046.09;2095272;28;20016;-82
2022/03/24 00:25:14;;;;;;;24.13;14.02;;;;;;;-0.15;92.51;94047.50;2097332;28;20032;-82
2022/03/24 00:26:15;;;;;;;20.92;14.18;;;;;;;-0.08;91.83;94047.75;2093383;28;20040;-84
2022/03/24 00:27:16;;;;;;;22.02;14.35;;;;;;;-0.10;91.81;94045.44;2102112;28;20020;-82
2022/03/24 00:28:17;;;;;;;23.45;14.88;;;;;;;-0.21;92.64;94049.56;2091576;28;20017;-81
2022/03/24 00:29:18;;;;;;;22.70;14.70;;;;;;;-0.18;92.70;94043.66;2089622;28;20029;-83
2022/03/24 00:30:19;;;;;;;20.55;14.52;;;;;;;-0.21;93.04;94046.19;2086127;28;20021;-83
2022/03/24 00:31:20;;;;;;;22.08;13.55;;;;;;;-0.19;93.37;94049.25;2092748;28;20024;-82
2022/03/24 00:32:21;;;;;;;23.38;14.75;;;;;;;-0.26;94.03;94047.91;2089685;28;20154;-83
2022/03/24 00:33:23;;;;;;;21.70;14.20;;;;;;;-0.08;92.71;94038.00;2089170;28;20024;-81
2022/03/24 00:34:24;;;;;;;19.48;14.05;;;;;;;-0.29;91.77;94039.91;2087577;28;20028;-81
2022/03/24 00:35:26;;;;;;;19.88;13.73;;;;;;;-0.30;93.25;94046.25;2097648;28;20054;-83
2022/03/24 00:36:27;;;;;;;18.05;13.18;;;;;;;-0.20;92.97;94042.44;2095630;28;20017;-82
2022/03/24 00:37:31;;;;;;;24.98;14.13;;;;;;;-0.26;92.90;94041.91;2090832;28;20877;-83
2022/03/24 00:38:31;;;;;;;20.27;14.05;;;;;;;-0.30;92.25;94046.25;2097080;28;20028;-84
2022/03/24 00:39:34;;;;;;;20.83;14.55;;;;;;;-0.37;93.13;94040.75;2095507;28;20020;-82
2022/03/24 00:40:35;;;;;;;18.92;13.13;;;;;;;-0.39;94.07;94037.69;2088594;28;20028;-82
2022/03/24 00:41:36;;;;;;;19.25;13.88;;;;;;;-0.40;93.97;94028.25;2095518;28;20017;-84
2022/03/24 00:42:38;;;;;;;19.05;13.32;;;;;;;-0.40;94.38;94036.91;2088905;28;20121;-85
2022/03/24 00:43:39;;;;;;;19.50;13.68;;;;;;;-0.30;94.04;94041.00;2085839;28;20024;-84
2022/03/24 00:44:44;;;;;;;18.90;13.88;;;;;;;-0.35;93.96;94030.69;2094549;28;20050;-81
2022/03/24 00:45:45;;;;;;;19.92;13.95;;;;;;;-0.37;93.91;94038.13;2097240;28;20396;-82
2022/03/24 00:46:46;;;;;;;19.15;14.00;;;;;;;-0.33;92.97;94044.28;2104020;28;20032;-82
2022/03/24 00:47:47;;;;;;;19.38;14.07;;;;;;;-0.36;93.74;94034.41;2095415;28;20016;-81
2022/03/24 00:48:49;;;;;;;17.38;13.32;;;;;;;-0.40;93.42;94033.50;2103944;28;21115;-82
2022/03/24 00:49:50;;;;;;;20.00;13.35;;;;;;;-0.34;92.54;94025.13;2095941;28;20030;-83
2022/03/24 00:50:53;;;;;;;23.35;13.85;;;;;;;-0.47;93.03;94030.66;2086231;28;20071;-81
2022/03/24 00:51:55;;;;;;;20.10;12.80;;;;;;;-0.52;94.41;94029.78;2094664;28;20421;-82
2022/03/24 00:52:56;;;;;;;21.13;13.98;;;;;;;-0.59;95.65;94034.00;2094046;28;20025;-82
2022/03/24 00:53:57;;;;;;;20.25;13.73;;;;;;;-0.51;95.49;94027.91;2096140;28;20017;-81
2022/03/24 00:54:58;;;;;;;19.77;13.85;;;;;;;-0.40;95.01;94026.41;2089997;28;20032;-83
2022/03/24 00:55:59;;;;;;;20.08;13.60;;;;;;;-0.40;94.62;94025.63;2101845;28;20027;-83
2022/03/24 00:57:01;;;;;;;19.77;13.45;;;;;;;-0.48;94.74;94023.84;2085471;28;20025;-80
2022/03/24 00:58:03;;;;;;;22.83;13.52;;;;;;;-0.53;95.63;94030.88;2093794;28;20342;-81
2022/03/24 00:59:04;;;;;;;18.38;13.48;;;;;;;-0.54;95.79;94031.16;2094381;28;20023;-81
2022/03/24 01:00:07;;;;;;;19.70;14.02;;;;;;;-0.51;95.63;94030.53;2087743;28;20044;-84
2022/03/24 01:01:12;;;;;;;19.95;14.73;;;;;;;-0.55;95.77;94030.41;2098663;28;20013;-81
2022/03/24 01:02:14;;;;;;;20.40;13.80;;;;;;;-0.60;96.08;94022.72;2097582;28;20464;-83
2022/03/24 01:03:15;;;;;;;22.02;14.13;;;;;;;-0.60;96.23;94027.97;2087155;28;20071;-82
2022/03/24 01:04:16;;;;;;;20.58;13.52;;;;;;;-0.62;96.93;94029.38;2086580;28;20021;-81
2022/03/24 01:05:18;;;;;;;17.67;13.05;;;;;;;-0.65;96.07;94030.03;2097187;28;20102;-82
2022/03/24 01:06:22;;;;;;;20.88;14.60;;;;;;;-0.67;96.23;94025.09;2088220;28;20384;-81
2022/03/24 01:07:23;;;;;;;18.08;12.73;;;;;;;-0.66;96.02;94018.78;2097299;28;20119;-82
2022/03/24 01:08:24;;;;;;;20.15;13.98;;;;;;;-0.61;96.18;94023.06;2088381;28;20576;-80
2022/03/24 01:09:25;;;;;;;19.67;13.18;;;;;;;-0.67;95.37;94021.72;2097725;28;20400;-80
2022/03/24 01:10:26;;;;;;;20.55;13.48;;;;;;;-0.66;96.52;94024.03;2086414;28;20104;-83
2022/03/24 01:11:27;;;;;;;21.50;14.52;;;;;;;-0.69;96.03;94021.28;2089588;28;20435;-83
2022/03/24 01:12:28;;;;;;;19.48;12.73;;;;;;;-0.75;96.18;94023.31;2087167;28;20052;-81
2022/03/24 01:13:30;;;;;;;18.10;12.93;;;;;;;-0.68;95.74;94014.94;2090116;28;20021;-83
2022/03/24 01:14:35;;;;;;;19.92;13.57;;;;;;;-0.65;95.83;94019.53;2090024;28;20025;-84
2022/03/24 01:15:36;;;;;;;23.40;13.48;;;;;;;-0.69;96.04;94021.28;2097203;28;20040;-82
2022/03/24 01:16:37;;;;;;;20.13;13.15;;;;;;;-0.72;95.73;94020.06;2102015;28;20024;-83
2022/03/24 01:17:38;;;;;;;18.25;13.27;;;;;;;-0.59;95.41;94015.63;2094215;28;20051;-80
2022/03/24 01:18:40;;;;;;;23.70;13.65;;;;;;;-0.63;94.86;94014.72;2093292;28;20027;-81
2022/03/24 01:19:40;;;;;;;18.48;13.93;;;;;;;-0.61;95.48;94010.69;2088726;28;20021;-82
2022/03/24 01:20:42;;;;;;;18.75;13.30;;;;;;;-0.69;96.07;94014.16;2094350;28;20020;-82
2022/03/24 01:21:43;;;;;;;22.63;13.70;;;;;;;-0.71;96.69;94016.34;2092725;28;20083;-82
2022/03/24 01:22:44;;;;;;;18.60;13.27;;;;;;;-0.72;96.52;94017.44;2097945;28;20021;-82
2022/03/24 01:23:45;;;;;;;20.20;13.48;;;;;;;-0.72;96.18;94012.19;2095765;28;20103;-82
2022/03/24 01:24:46;;;;;;;19.80;13.60;;;;;;;-0.74;96.17;94017.00;2092144;28;20028;-83
2022/03/24 01:25:48;;;;;;;19.77;13.90;;;;;;;-0.69;94.98;94014.16;2093891;28;20810;-82
2022/03/24 01:26:49;;;;;;;21.23;13.93;;;;;;;-0.77;96.35;94015.75;2087938;28;20385;-81
2022/03/24 01:27:51;;;;;;;22.15;13.63;;;;;;;-0.76;96.49;94011.28;2088872;28;20020;-81
2022/03/24 01:28:52;;;;;;;20.67;14.52;;;;;;;-0.86;97.00;94012.44;2102797;28;20115;-81
2022/03/24 01:29:57;;;;;;;23.50;14.02;;;;;;;-0.78;97.00;94010.84;2088070;28;20067;-81
2022/03/24 01:30:59;;;;;;;21.17;14.05;;;;;;;-0.76;97.12;94013.91;2097203;28;20032;-81
2022/03/24 01:32:00;;;;;;;19.00;13.82;;;;;;;-0.85;97.63;94015.84;2088882;28;20395;-82
2022/03/24 01:33:01;;;;;;;19.98;12.65;;;;;;;-0.76;96.90;94008.66;2094925;28;20020;-82
2022/03/24 01:34:02;;;;;;;20.25;14.05;;;;;;;-0.78;96.34;94009.00;2095182;28;20024;-82
2022/03/24 01:35:06;;;;;;;19.35;13.10;;;;;;;-0.82;96.67;94015.19;2092264;28;20035;-80
2022/03/24 01:36:09;;;;;;;18.33;12.85;;;;;;;-0.81;96.20;94011.47;2098163;28;20016;-80
2022/03/24 01:37:11;;;;;;;24.10;15.35;;;;;;;-0.84;96.57;94010.25;2088876;28;20056;-81
2022/03/24 01:38:12;;;;;;;17.95;13.13;;;;;;;-0.84;96.72;94012.13;2095349;28;20538;-82
2022/03/24 01:39:13;;;;;;;21.10;14.98;;;;;;;-0.93;97.48;94006.16;2094287;28;20067;-81
2022/03/24 01:40:14;;;;;;;21.88;14.15;;;;;;;-0.83;97.21;94006.56;2094381;28;20115;-82
2022/03/24 01:41:15;;;;;;;19.63;13.75;;;;;;;-0.88;97.35;94009.38;2088209;28;20018;-82
2022/03/24 01:42:18;;;;;;;21.67;13.82;;;;;;;-0.92;97.00;94005.06;2084982;28;20382;-80
2022/03/24 01:43:19;;;;;;;21.63;14.27;;;;;;;-1.04;97.98;94003.94;2087896;28;20035;-81
2022/03/24 01:44:21;;;;;;;23.10;14.15;;;;;;;-1.05;98.28;94002.41;2095534;28;20695;-82
2022/03/24 01:45:22;;;;;;;22.10;14.52;;;;;;;-1.02;98.44;93996.50;2093458;28;20489;-82
2022/03/24 01:46:23;;;;;;;19.70;14.05;;;;;;;-1.02;97.54;93998.38;2085269;28;20075;-83
2022/03/24 01:47:24;;;;;;;25.60;13.82;;;;;;;-1.00;97.45;93998.06;2094072;28;20020;-83
2022/03/24 01:48:26;;;;;;;21.10;14.35;;;;;;;-0.99;97.54;94002.97;2098921;28;20391;-82
2022/03/24 01:49:31;;;;;;;22.60;13.65;;;;;;;-0.98;97.71;94001.88;2086443;28;20033;-83
2022/03/24 01:50:33;;;;;;;22.35;13.05;;;;;;;-1.05;98.48;93994.53;2103129;28;20024;-82
2022/03/24 01:51:34;;;;;;;20.60;13.98;;;;;;;-1.04;99.13;94003.19;2103780;28;20028;-83
2022/03/24 01:52:35;;;;;;;18.83;14.15;;;;;;;-1.04;99.51;93993.44;2094458;28;20413;-81
2022/03/24 01:53:36;;;;;;;20.45;13.95;;;;;;;-1.09;99.99;94001.50;2094723;28;20471;-83
2022/03/24 01:54:40;;;;;;;23.02;14.55;;;;;;;-1.03;99.55;93992.34;2088664;28;20090;-82
2022/03/24 01:55:41;;;;;;;20.65;14.93;;;;;;;-1.09;99.41;93998.88;2095519;28;20025;-82
2022/03/24 01:56:43;;;;;;;22.75;14.48;;;;;;;-1.13;100.00;93994.59;2095732;28;20163;-82
2022/03/24 01:57:45;;;;;;;21.85;14.68;;;;;;;-1.15;100.00;93994.91;2095499;28;20031;-82
2022/03/24 01:58:48;;;;;;;24.23;14.68;;;;;;;-1.14;100.00;93993.03;2085400;28;20447;-81
2022/03/24 01:59:49;;;;;;;20.05;14.43;;;;;;;-1.14;100.00;93998.28;2093194;28;20024;-82
2022/03/24 02:00:51;;;;;;;22.13;14.15;;;;;;;-1.16;100.00;93992.63;2094854;28;20530;-82
2022/03/24 02:01:53;;;;;;;25.58;15.32;;;;;;;-1.18;100.00;93998.19;2095575;28;20396;-83
2022/03/24 02:02:59;;;;;;;22.33;15.10;;;;;;;-1.21;100.00;93998.06;2096664;28;20350;-82
2022/03/24 02:04:04;;;;;;;20.73;13.82;;;;;;;-1.19;100.00;93999.25;2102377;28;20123;-82
2022/03/24 02:05:05;;;;;;;21.65;14.13;;;;;;;-1.23;99.54;93984.47;2098555;28;20020;-81
2022/03/24 02:06:06;;;;;;;20.65;13.68;;;;;;;-1.23;100.00;93995.72;2094754;28;20485;-82
2022/03/24 02:07:08;;;;;;;21.20;14.70;;;;;;;-1.22;100.00;93993.91;2091282;28;20111;-82
2022/03/24 02:08:15;;;;;;;22.13;14.90;;;;;;;-1.25;100.00;93997.91;2093473;28;20104;-82
2022/03/24 02:09:20;;;;;;;22.30;14.27;;;;;;;-1.28;100.00;93988.06;2094318;28;20077;-81
2022/03/24 02:10:21;;;;;;;21.38;14.50;;;;;;;-1.23;100.00;93985.25;2093570;28;20037;-82
2022/03/24 02:11:22;;;;;;;21.92;13.90;;;;;;;-1.23;100.00;93990.47;2087904;28;20029;-82
2022/03/24 02:12:25;;;;;;;23.98;14.20;;;;;;;-1.22;100.00;93992.03;2083094;28;20100;-82
2022/03/24 02:13:26;;;;;;;22.02;14.45;;;;;;;-1.18;100.00;93985.06;2089521;28;20043;-81
2022/03/24 02:14:29;;;;;;;22.50;14.60;;;;;;;-1.24;100.00;93980.31;2093550;28;20017;-83
2022/03/24 02:15:32;;;;;;;20.00;13.35;;;;;;;-1.30;100.00;93985.75;2097653;28;20020;-82
2022/03/24 02:16:38;;;;;;;19.30;13.27;;;;;;;-1.17;100.00;93986.59;2090918;28;20056;-82
2022/03/24 02:17:41;;;;;;;24.17;15.90;;;;;;;-1.24;100.00;93982.94;2095643;28;20020;-82
2022/03/24 02:18:44;;;;;;;24.15;15.25;;;;;;;-1.37;100.00;93989.97;2091264;28;20021;-81
2022/03/24 02:19:45;;;;;;;23.52;15.73;;;;;;;-1.24;100.00;93983.72;2083404;28;20490;-83
2022/03/24 02:20:47;;;;;;;21.45;14.00;;;;;;;-1.33;100.00;93988.25;2086742;28;20048;-82
2022/03/24 02:21:56;;;;;;;25.63;15.07;;;;;;;-1.39;100.00;93979.03;2094945;28;20099;-83
2022/03/24 02:22:57;;;;;;;20.77;13.90;;;;;;;-1.34;100.00;93978.84;2100741;28;20103;-83
2022/03/24 02:23:59;;;;;;;19.25;14.40;;;;;;;-1.29;100.00;93986.53;2096625;28;20027;-82
2022/03/24 02:25:00;;;;;;;21.17;13.90;;;;;;;-1.38;100.00;93988.44;2096830;28;20478;-83
2022/03/24 02:26:02;;;;;;;24.85;15.18;;;;;;;-1.33;100.00;93983.00;2088872;28;20044;-82
2022/03/24 02:27:04;;;;;;;21.58;14.48;;;;;;;-1.32;100.00;93982.69;2094918;28;20013;-81
2022/03/24 02:28:05;;;;;;;21.65;14.20;;;;;;;-1.45;100.00;93977.69;2083124;28;20533;-82
2022/03/24 02:29:07;;;;;;;22.17;14.38;;;;;;;-1.46;100.00;93984.78;2086805;28;20100;-83
2022/03/24 02:30:10;;;;;;;20.17;13.95;;;;;;;-1.50;100.00;93983.88;2084214;28;20032;-83
2022/03/24 02:31:12;;;;;;;19.90;14.10;;;;;;;-1.57;100.00;93984.38;2093147;28;20056;-82
2022/03/24 02:32:20;;;;;;;22.50;13.95;;;;;;;-1.42;100.00;93985.69;2094278;28;20021;-83
2022/03/24 02:33:22;;;;;;;22.88;14.55;;;;;;;-1.41;100.00;93981.97;2087813;28;20457;-81
2022/03/24 02:34:47;;;;;;;20.35;14.80;;;;;;;-1.48;100.00;93986.97;2084755;28;20034;-82
2022/03/24 02:35:50;;;;;;;17.92;13.07;;;;;;;-1.44;100.00;93976.63;2104778;28;20080;-81
2022/03/24 02:36:52;;;;;;;23.92;14.80;;;;;;;-1.54;100.00;93980.34;2095136;28;20023;-81
2022/03/24 02:37:53;;;;;;;20.95;14.52;;;;;;;-1.49;100.00;93974.94;2081345;28;20025;-82
2022/03/24 02:38:53;;;;;;;22.70;15.35;;;;;;;-1.61;100.00;93980.88;2086531;28;20022;-83
2022/03/24 02:39:57;;;;;;;20.90;14.63;;;;;;;-1.62;100.00;93978.56;2088697;28;20025;-82
2022/03/24 02:40:59;;;;;;;21.90;15.52;;;;;;;-1.60;100.00;93979.00;2092522;28;20020;-82
2022/03/24 02:42:00;;;;;;;22.15;14.02;;;;;;;-1.63;100.00;93974.41;2090802;28;20017;-80
2022/03/24 02:43:02;;;;;;;25.25;14.88;;;;;;;-1.54;100.00;93983.75;2097213;28;20507;-82
2022/03/24 02:44:04;;;;;;;23.15;14.98;;;;;;;-1.50;100.00;93977.88;2101618;28;20020;-82
2022/03/24 02:45:08;;;;;;;22.17;14.85;;;;;;;-1.50;100.00;93976.00;2101903;28;20016;-81
2022/03/24 02:46:09;;;;;;;23.85;15.23;;;;;;;-1.56;100.00;93972.06;2096696;28;20021;-81
2022/03/24 02:47:13;;;;;;;27.55;15.02;;;;;;;-1.59;100.00;93978.69;2087967;28;20032;-83
2022/03/24 02:48:14;;;;;;;21.92;14.98;;;;;;;-1.49;100.00;93976.78;2089143;28;20017;-83
2022/03/24 02:49:24;;;;;;;21.08;14.30;;;;;;;-1.41;100.00;93975.97;2088718;28;20028;-81
2022/03/24 02:50:25;;;;;;;21.67;14.73;;;;;;;-1.48;100.00;93973.09;2094871;28;20024;-82
2022/03/24 02:51:26;;;;;;;21.77;14.77;;;;;;;-1.45;100.00;93975.06;2087531;28;20823;-83
2022/03/24 02:52:27;;;;;;;23.00;14.50;;;;;;;-1.55;100.00;93973.56;2096171;28;20055;-81
2022/03/24 02:53:28;;;;;;;21.85;15.00;;;;;;;-1.41;100.00;93970.72;2094948;28;20020;-82
2022/03/24 02:54:31;;;;;;;19.17;13.70;;;;;;;-1.39;100.00;93971.19;2096916;28;20021;-82
2022/03/24 02:55:32;;;;;;;22.73;14.35;;;;;;;-1.43;100.00;93968.41;2087371;28;20040;-80
2022/03/24 02:56:33;;;;;;;21.65;14.55;;;;;;;-1.51;100.00;93969.25;2088932;28;20017;-80
2022/03/24 02:57:34;;;;;;;22.42;15.18;;;;;;;-1.52;100.00;93971.09;2092834;28;20024;-80
2022/03/24 02:58:35;;;;;;;24.35;15.00;;;;;;;-1.57;100.00;93966.03;2088709;28;20025;-81
2022/03/24 02:59:36;;;;;;;22.98;14.38;;;;;;;-1.53;100.00;93974.81;2092293;28;20457;-81
2022/03/24 03:00:38;;;;;;;23.23;13.93;;;;;;;-1.56;100.00;93977.28;2101864;28;20026;-82
2022/03/24 03:01:44;;;;;;;23.13;15.15;;;;;;;-1.59;100.00;93968.19;2096297;28;20028;-82
2022/03/24 03:02:46;;;;;;;23.80;15.00;;;;;;;-1.69;100.00;93976.44;2105976;28;20031;-83
2022/03/24 03:03:47;;;;;;;23.38;15.38;;;;;;;-1.53;100.00;93974.03;2101377;28;20393;-81
2022/03/24 03:04:49;;;;;;;23.65;14.50;;;;;;;-1.56;100.00;93975.44;2096888;28;20027;-82
2022/03/24 03:05:50;;;;;;;23.58;15.15;;;;;;;-1.56;100.00;93972.06;2088660;28;20485;-81
2022/03/24 03:06:53;;;;;;;27.58;14.93;;;;;;;-1.56;100.00;93974.66;2089980;28;20047;-81
2022/03/24 03:07:54;;;;;;;23.10;14.13;;;;;;;-1.58;100.00;93975.00;2087819;28;20049;-83
2022/03/24 03:08:55;;;;;;;19.48;14.07;;;;;;;-1.59;100.00;93976.06;2096176;28;20024;-81
2022/03/24 03:09:56;;;;;;;22.15;14.75;;;;;;;-1.58;100.00;93976.81;2090230;28;20032;-81
2022/03/24 03:10:57;;;;;;;19.60;14.43;;;;;;;-1.64;100.00;93971.00;2106092;28;20108;-81
2022/03/24 03:11:59;;;;;;;21.63;13.63;;;;;;;-1.70;100.00;93969.66;2104935;28;20050;-81
2022/03/24 03:12:59;;;;;;;24.55;15.57;;;;;;;-1.65;100.00;93971.34;2108895;28;20488;-83
2022/03/24 03:14:01;;;;;;;21.42;15.05;;;;;;;-1.60;100.00;93986.88;2106382;28;20052;-81
2022/03/24 03:15:03;;;;;;;23.50;14.65;;;;;;;-1.70;100.00;93972.28;2094517;28;20012;-81
2022/03/24 03:16:05;;;;;;;24.25;15.73;;;;;;;-1.65;100.00;93974.72;2096866;28;20048;-82
2022/03/24 03:17:07;;;;;;;27.33;15.57;;;;;;;-1.73;100.00;93982.63;2096860;28;20024;-82
2022/03/24 03:18:08;;;;;;;22.00;14.85;;;;;;;-1.73;100.00;93972.91;2086323;28;20025;-81
2022/03/24 03:19:09;;;;;;;23.08;15.15;;;;;;;-1.70;100.00;93974.91;2089079;28;20020;-81
2022/03/24 03:20:12;;;;;;;21.90;15.07;;;;;;;-1.70;100.00;93971.53;2095479;28;20082;-82
2022/03/24 03:21:13;;;;;;;24.25;15.85;;;;;;;-1.73;100.00;93980.78;2102182;28;20034;-84
2022/03/24 03:22:15;;;;;;;21.15;15.07;;;;;;;-1.80;100.00;93972.63;2098571;28;20024;-82
2022/03/24 03:23:16;;;;;;;20.80;14.15;;;;;;;-1.74;100.00;93981.88;2094022;28;20777;-81
2022/03/24 03:24:18;;;;;;;21.98;14.93;;;;;;;-1.73;100.00;93977.38;2089498;28;20051;-82
2022/03/24 03:25:20;;;;;;;21.33;15.55;;;;;;;-1.77;100.00;93975.38;2090395;28;20032;-82
2022/03/24 03:26:23;;;;;;;23.00;15.07;;;;;;;-1.73;100.00;93972.91;2092542;28;20017;-82
2022/03/24 03:27:24;;;;;;;22.48;15.13;;;;;;;-1.72;100.00;93981.53;2090784;28;20044;-81
2022/03/24 03:28:27;;;;;;;22.35;15.60;;;;;;;-1.78;100.00;93973.84;2096956;28;20078;-84
2022/03/24 03:29:28;;;;;;;25.83;15.77;;;;;;;-1.73;100.00;93980.00;2095219;28;20028;-82
2022/03/24 03:30:30;;;;;;;24.45;15.10;;;;;;;-1.70;100.00;93985.38;2096935;28;20025;-84
2022/03/24 03:31:30;;;;;;;26.50;15.73;;;;;;;-1.70;100.00;93982.78;2094117;28;20021;-82
2022/03/24 03:32:32;;;;;;;21.58;15.35;;;;;;;-1.72;100.00;93984.94;2085600;28;20745;-82
2022/03/24 03:33:33;;;;;;;23.73;16.30;;;;;;;-1.73;100.00;93983.38;2089939;28;20021;-82
2022/03/24 03:34:33;;;;;;;31.80;16.58;;;;;;;-1.83;100.00;93983.75;2096334;28;20100;-82
2022/03/24 03:35:34;;;;;;;24.58;15.13;;;;;;;-1.84;100.00;93985.63;2102167;28;20489;-83
2022/03/24 03:36:37;;;;;;;20.80;15.13;;;;;;;-1.79;100.00;93984.66;2094108;28;20063;-83
2022/03/24 03:37:38;;;;;;;23.05;15.55;;;;;;;-1.81;100.00;93984.97;2086500;28;20083;-84
2022/03/24 03:38:39;;;;;;;25.92;17.02;;;;;;;-1.87;100.00;93988.84;2090114;28;20107;-83
2022/03/24 03:39:40;;;;;;;25.77;15.52;;;;;;;-1.81;100.00;93984.19;2099597;28;20824;-83
2022/03/24 03:40:42;;;;;;;23.08;15.88;;;;;;;-1.82;100.00;93985.28;2093137;28;20029;-81
2022/03/24 03:41:42;;;;;;;23.25;14.63;;;;;;;-1.83;100.00;93984.53;2104559;28;20028;-81
2022/03/24 03:42:43;;;;;;;21.35;15.50;;;;;;;-1.83;100.00;93987.16;2096163;28;20148;-83
2022/03/24 03:43:44;;;;;;;22.83;15.25;;;;;;;-1.89;100.00;93985.00;2101064;28;20438;-82
2022/03/24 03:44:45;;;;;;;21.88;15.20;;;;;;;-1.81;100.00;93987.59;2097731;28;20056;-81
2022/03/24 03:45:46;;;;;;;22.98;15.27;;;;;;;-1.82;100.00;93986.06;2096028;28;20024;-82
2022/03/24 03:46:48;;;;;;;24.42;16.10;;;;;;;-1.85;100.00;93980.69;2096129;28;20024;-82
2022/03/24 03:47:49;;;;;;;24.58;15.32;;;;;;;-1.89;100.00;93987.63;2095939;28;20490;-83
2022/03/24 03:48:49;;;;;;;22.85;15.82;;;;;;;-1.89;100.00;93979.75;2103837;28;20023;-82
2022/03/24 03:49:50;;;;;;;24.02;16.23;;;;;;;-1.94;100.00;93985.94;2096302;28;20712;-82
2022/03/24 03:50:51;;;;;;;29.08;17.30;;;;;;;-1.91;100.00;93984.56;2096035;28;20025;-82
2022/03/24 03:51:53;;;;;;;25.20;14.77;;;;;;;-1.90;100.00;93983.47;2086068;28;20075;-81
2022/03/24 03:52:55;;;;;;;25.65;16.58;;;;;;;-1.89;100.00;93990.25;2096014;28;20121;-82
2022/03/24 03:53:56;;;;;;;22.90;14.95;;;;;;;-1.87;100.00;93985.47;2106494;27;20027;-81
2022/03/24 03:54:57;;;;;;;25.80;15.98;;;;;;;-1.85;100.00;93991.16;2098827;28;20075;-83
2022/03/24 03:55:58;;;;;;;23.48;15.90;;;;;;;-1.92;100.00;93991.66;2097217;28;20419;-84
2022/03/24 03:56:59;;;;;;;21.27;14.38;;;;;;;-1.84;100.00;93985.63;2097832;28;20047;-84
2022/03/24 03:58:00;;;;;;;25.08;16.17;;;;;;;-1.91;100.00;93977.47;2097852;28;20023;-83
2022/03/24 03:59:02;;;;;;;23.48;16.25;;;;;;;-1.91;100.00;93982.72;2093788;28;20022;-82
2022/03/24 04:00:52;;;;;;;28.20;16.08;;;;;;;-1.88;100.00;93989.19;2089684;28;20016;-83
2022/03/24 04:01:26;;;;;;;23.55;15.27;;;;;;;-1.89;100.00;93977.16;2099547;28;20069;-83
2022/03/24 04:02:27;;;;;;;29.23;17.08;;;;;;;-1.90;100.00;93984.25;2098108;28;20024;-81
2022/03/24 04:03:30;;;;;;;27.50;16.15;;;;;;;-1.94;100.00;93982.56;2104281;28;20032;-82
2022/03/24 04:04:31;;;;;;;28.10;17.00;;;;;;;-1.98;100.00;93979.03;2094920;28;20793;-82
2022/03/24 04:05:33;;;;;;;28.35;17.60;;;;;;;-2.01;100.00;93982.31;2090706;28;20047;-82
2022/03/24 04:06:34;;;;;;;26.05;15.68;;;;;;;-2.04;100.00;93981.84;2093302;28;20104;-81
2022/03/24 04:07:35;;;;;;;24.83;16.48;;;;;;;-2.04;100.00;93973.97;2091187;28;20036;-83
2022/03/24 04:08:42;;;;;;;25.33;16.85;;;;;;;-2.12;100.00;93984.50;2092363;28;20020;-83
2022/03/24 04:09:43;;;;;;;25.60;16.10;;;;;;;-2.15;100.00;93985.91;2104342;28;20913;-83
2022/03/24 04:10:44;;;;;;;25.98;17.33;;;;;;;-2.16;100.00;93986.19;2097925;28;20025;-84
2022/03/24 04:11:45;;;;;;;30.33;16.88;;;;;;;-2.05;100.00;93975.06;2099657;28;20086;-81
2022/03/24 04:12:46;;;;;;;26.75;17.27;;;;;;;-1.98;100.00;93987.66;2091538;28;20072;-84
2022/03/24 04:13:47;;;;;;;25.75;16.58;;;;;;;-2.09;100.00;93976.00;2095580;28;20016;-81
2022/03/24 04:14:48;;;;;;;28.73;16.55;;;;;;;-1.99;100.00;93986.13;2095752;28;20072;-83
2022/03/24 04:15:51;;;;;;;24.95;15.82;;;;;;;-2.04;100.00;93979.22;2098054;28;20115;-82
2022/03/24 04:16:57;;;;;;;26.42;16.42;;;;;;;-1.89;100.00;93977.16;2099700;28;20100;-81
2022/03/24 04:17:57;;;;;;;27.08;17.08;;;;;;;-1.92;100.00;93973.31;2094901;28;20070;-82
2022/03/24 04:18:58;;;;;;;25.52;15.70;;;;;;;-2.00;100.00;93981.22;2097720;28;20016;-82
2022/03/24 04:20:02;;;;;;;25.20;17.20;;;;;;;-1.93;100.00;93977.03;2106030;28;20043;-82
2022/03/24 04:21:03;;;;;;;28.42;16.15;;;;;;;-1.96;100.00;93976.88;2092300;28;20811;-83
2022/03/24 04:22:05;;;;;;;30.83;16.63;;;;;;;-2.04;100.00;93979.22;2083158;28;20032;-81
2022/03/24 04:23:06;;;;;;;27.05;16.35;;;;;;;-2.01;100.00;93985.69;2081543;28;20021;-81
2022/03/24 04:24:08;;;;;;;27.38;16.80;;;;;;;-2.04;100.00;93979.22;2093721;28;20021;-82
2022/03/24 04:25:09;;;;;;;25.33;17.05;;;;;;;-1.95;100.00;93976.56;2096547;28;20511;-82
2022/03/24 04:26:11;;;;;;;28.55;16.98;;;;;;;-1.98;100.00;93982.41;2090485;28;20028;-81
2022/03/24 04:27:12;;;;;;;24.50;16.83;;;;;;;-2.04;100.00;93976.59;2095002;28;20016;-83
2022/03/24 04:28:14;;;;;;;26.35;15.85;;;;;;;-1.99;100.00;93975.66;2100541;28;20074;-82
2022/03/24 04:29:15;;;;;;;23.88;16.08;;;;;;;-2.00;100.00;93978.59;2101522;28;20046;-82
2022/03/24 04:30:17;;;;;;;25.20;17.50;;;;;;;-2.08;100.00;93974.94;2095963;28;20024;-82
2022/03/24 04:31:18;;;;;;;26.48;16.45;;;;;;;-2.10;100.00;93972.63;2097724;28;20154;-81
2022/03/24 04:32:21;;;;;;;27.38;16.95;;;;;;;-2.10;100.00;93984.97;2095673;28;20059;-82
2022/03/24 04:33:22;;;;;;;26.50;16.67;;;;;;;-2.12;100.00;93977.41;2104481;28;20469;-80
2022/03/24 04:34:23;;;;;;;32.25;17.80;;;;;;;-2.14;100.00;93979.56;2098294;28;20024;-83
2022/03/24 04:35:25;;;;;;;28.88;16.60;;;;;;;-2.18;100.00;93983.91;2098112;28;20051;-82
2022/03/24 04:36:27;;;;;;;24.42;17.15;;;;;;;-2.25;100.00;93980.22;2089699;28;20029;-81
2022/03/24 04:37:27;;;;;;;27.50;17.48;;;;;;;-2.19;100.00;93979.00;2081701;28;20029;-82
2022/03/24 04:38:29;;;;;;;25.83;17.35;;;;;;;-2.22;100.00;93980.38;2093768;28;20032;-83
2022/03/24 04:39:30;;;;;;;26.38;17.45;;;;;;;-2.19;100.00;93973.75;2106553;28;20102;-82
2022/03/24 04:40:32;;;;;;;24.02;16.02;;;;;;;-2.14;100.00;93984.06;2098226;28;20078;-82
2022/03/24 04:41:34;;;;;;;25.27;16.23;;;;;;;-2.11;100.00;93972.94;2098502;28;20735;-82
2022/03/24 04:42:35;;;;;;;26.58;16.83;;;;;;;-2.18;100.00;93986.53;2098301;28;20074;-81